KCNU/CNU METAR and TAF weather

Enter ICAO airport designator
Station Type Date Time Source
KCNU METAR 2019/08/19 11:52 UTC NOAA

KCNU 191152Z AUTO 15005KT 10SM CLR 24/22 A2997 RMK AO2 SLP137 70008 T02390222 10261 20239 53010


Station Type Date Time Source
KCNU Decoded METAR 2019/08/19 11:52 UTC NOAA

Station name not available
Aug 19, 2019 - 07:52 AM EDT / 2019.08.19 1152 UTC
Wind: from the SSE (150 degrees) at 6 MPH (5 KT):0
Visibility: 10 mile(s):0
Sky conditions: clear
Temperature: 75.0 F (23.9 C)
Dew Point: 72.0 F (22.2 C)
Relative Humidity: 90%
Pressure (altimeter): 29.97 in. Hg (1014 hPa)
Pressure tendency: 0.03 inches (1.0 hPa) higher than three hours ago
ob: KCNU 191152Z AUTO 15005KT 10SM CLR 24/22 A2997 RMK AO2 SLP137 70008 T02390222 10261 20239 53010
cycle: 12

Station Type Date Time Source
KCNU TAF 2019/08/19 12:42 UTC NOAA

TAF KCNU 191140Z 1912/2012 15007KT P6SM SCT060
FM191600 17009KT P6SM SCT060

Example: see airport list